Impacts TAF Board
For situational awareness. Not to be used for flight planning purposes.
IDs:

KISM - Kissimmee Muni, FL, US

Issued at 0524 UTC 13 Aug 2022
Updated at 0903 UTC 13 Aug 2022
Potential Impact None Slight Moderate High
Time<<13/22Z 13/23Z 14/00Z 14/01Z 14/02Z 14/03Z 14/04Z 14/05Z 14/06Z 14/07Z 14/08Z 14/09Z 14/10Z>>
Type PRVL PRVL PRVL PRVL PRVL PRVL PRVL PRVL
VIS >6 >6 >6 >6 >6 >6 >6 >6
CIG 230 230 120 120 200 200 200 200
Cover BKN BKN BKN BKN BKN BKN BKN BKN
FltCat VFR VFR VFR VFR VFR VFR VFR VFR
WX VCTS VCTS VCSH VCSH -- -- -- --
WDir 240 240 VRB VRB VRB VRB VRB VRB
WSpd 7 7 4 4 0 0 0 0
WGst -- -- -- -- -- -- -- --
WSHgt -- -- -- -- -- -- -- --
WSDir -- -- -- -- -- -- -- --
WSSpd -- -- -- -- -- -- -- --
Raw TAF
KISM 130524Z 1306/1406 VRB02KT P6SM FEW040 BKN200
  FM131400 21005KT P6SM SCT040 BKN200
  FM131900 24007KT P6SM VCTS SCT040CB BKN230
  TEMPO 1319/1322 4SM TSRA BKN040CB BKN070
  FM140000 VRB04KT P6SM VCSH SCT050 BKN120
  FM140200 00000KT P6SM SCT040 BKN200


METAR Board
Radar Display
Forecast Discussion
For situational awareness. Not to be used for flight planning purposes.